Clearfield Lawrence Airport


Codes: KFIG/
Name: Clearfield Lawrence Airport
City: Clearfield
Country: United States
Elevation: 1516 ft.

Photos at Clearfield Lawrence Airport


   Photos courtesy of SpottingLog. You can add your own sightings and photos by signing up for a free trial today.



No photos found.

Weather at Clearfield Lawrence Airport


Time (UTC)DescriptionTempratureWindCloud coverageVisibilityPressureHumidity
15-Apr-2024 18:00Few Clouds18°C9 mph, NW20%10000m1013hPa50%
15-Apr-2024 21:00Clear Sky18°C9 mph, NW8%10000m1013hPa50%
16-Apr-2024 00:00Clear Sky11°C4 mph, NW1%10000m1016hPa70%
16-Apr-2024 03:00Clear Sky7°C2 mph, N0%10000m1018hPa77%
16-Apr-2024 06:00Clear Sky6°C2 mph, SW0%10000m1020hPa79%
16-Apr-2024 09:00Clear Sky5°C2 mph, N2%10000m1021hPa84%
16-Apr-2024 12:00Clear Sky8°C0 mph, NE4%10000m1022hPa75%
16-Apr-2024 15:00Few Clouds16°C2 mph, W11%10000m1021hPa52%
16-Apr-2024 18:00Few Clouds19°C4 mph, W16%10000m1019hPa39%
16-Apr-2024 21:00Few Clouds19°C4 mph, NW14%10000m1018hPa39%
17-Apr-2024 00:00Few Clouds13°C2 mph, NE24%10000m1019hPa65%
17-Apr-2024 03:00Overcast Clouds10°C4 mph, E100%10000m1021hPa76%
17-Apr-2024 06:00Overcast Clouds9°C7 mph, E100%10000m1019hPa73%
17-Apr-2024 09:00Overcast Clouds8°C4 mph, E100%10000m1020hPa81%
17-Apr-2024 12:00Light Rain9°C2 mph, SE100%10000m1020hPa86%
17-Apr-2024 15:00Moderate Rain10°C7 mph, E100%10000m1017hPa97%
17-Apr-2024 18:00Overcast Clouds12°C7 mph, SE100%10000m1015hPa94%
17-Apr-2024 21:00Overcast Clouds12°C9 mph, SE100%4691m1014hPa96%
18-Apr-2024 00:00Light Rain11°C9 mph, N100%0m1013hPa98%
18-Apr-2024 03:00Light Rain12°C9 mph, SE100%183m1011hPa98%
18-Apr-2024 06:00Moderate Rain13°C9 mph, S100%10000m1010hPa97%
18-Apr-2024 09:00Light Rain12°C4 mph, S100%10000m1010hPa99%
18-Apr-2024 12:00Light Rain12°C4 mph, W100%10000m1012hPa95%
18-Apr-2024 15:00Light Rain14°C9 mph, W95%10000m1013hPa84%
18-Apr-2024 18:00Light Rain12°C9 mph, W93%10000m1015hPa86%
18-Apr-2024 21:00Overcast Clouds13°C7 mph, W100%10000m1015hPa81%
19-Apr-2024 00:00Overcast Clouds11°C4 mph, W100%10000m1017hPa89%
19-Apr-2024 03:00Overcast Clouds10°C2 mph, W100%10000m1017hPa95%
19-Apr-2024 06:00Overcast Clouds8°C2 mph, S100%10000m1017hPa96%
19-Apr-2024 09:00Broken Clouds7°C2 mph, SW68%10000m1016hPa97%
19-Apr-2024 12:00Broken Clouds10°C2 mph, SW80%10000m1016hPa90%
19-Apr-2024 15:00Light Rain11°C2 mph, S100%10000m1015hPa87%
19-Apr-2024 18:00Light Rain12°C7 mph, SW100%10000m1013hPa94%
19-Apr-2024 21:00Light Rain11°C9 mph, W100%10000m1013hPa95%
20-Apr-2024 00:00Overcast Clouds9°C4 mph, W100%10000m1013hPa95%
20-Apr-2024 03:00Scattered Clouds6°C9 mph, W47%10000m1015hPa88%
20-Apr-2024 06:00Scattered Clouds3°C7 mph, W35%10000m1016hPa84%
20-Apr-2024 09:00Clear Sky1°C9 mph, W0%10000m1016hPa84%
20-Apr-2024 12:00Clear Sky2°C11 mph, W2%10000m1017hPa76%
20-Apr-2024 15:00Scattered Clouds6°C13 mph, NW37%10000m1017hPa48%